Time;durP1;ratioP1;P1;durP2;ratioP2;P2;SDS_P1;SDS_P2;PMS_P1;PMS_P2;Temp;Humidity;BMP_temperature;BMP_pressure;BME280_temperature;BME280_humidity;BME280_pressure;Samples;Min_cycle;Max_cycle;Signal;HPM_P1;HPM_P2
2022/05/09 00:01:40;;;;;;;4.10;1.52;;;;;;;21.84;37.29;102658.72;5094494;28;20051;-62
2022/05/09 00:04:06;;;;;;;4.13;1.58;;;;;;;21.84;37.34;102657.88;5094926;28;20048;-63
2022/05/09 00:06:31;;;;;;;3.42;1.30;;;;;;;21.83;37.30;102650.88;5095114;28;20024;-62
2022/05/09 00:08:57;;;;;;;5.13;1.70;;;;;;;21.83;37.35;102650.88;5093921;28;20099;-62
2022/05/09 00:11:22;;;;;;;4.55;1.60;;;;;;;21.82;37.13;102644.69;5094904;28;20210;-62
2022/05/09 00:13:47;;;;;;;4.97;1.70;;;;;;;21.81;37.15;102642.16;5094649;28;20020;-62
2022/05/09 00:16:12;;;;;;;3.50;1.50;;;;;;;21.81;36.96;102648.31;5093532;28;20376;-62
2022/05/09 00:18:38;;;;;;;4.22;1.63;;;;;;;21.78;37.17;102637.91;5094994;28;20054;-62
2022/05/09 00:21:06;;;;;;;5.13;1.77;;;;;;;21.78;37.07;102639.69;5094543;28;20024;-62
2022/05/09 00:23:32;;;;;;;3.75;1.85;;;;;;;21.78;37.18;102639.69;5093876;28;20288;-61
2022/05/09 00:25:58;;;;;;;4.13;1.50;;;;;;;21.77;37.20;102638.03;5094286;28;20529;-61
2022/05/09 00:28:23;;;;;;;3.92;1.70;;;;;;;21.74;37.07;102634.59;5094390;28;20035;-62
2022/05/09 00:30:51;;;;;;;3.85;1.60;;;;;;;21.74;36.86;102637.25;5094036;28;20024;-62
2022/05/09 00:33:17;;;;;;;4.03;1.70;;;;;;;21.74;36.83;102636.41;5094630;28;20028;-63
2022/05/09 00:35:44;;;;;;;4.65;1.75;;;;;;;21.74;37.05;102636.41;5093477;28;20138;-62
2022/05/09 00:38:09;;;;;;;4.28;1.60;;;;;;;21.75;36.99;102638.13;5094274;28;20468;-62
2022/05/09 00:40:35;;;;;;;3.72;1.30;;;;;;;21.75;36.91;102635.47;5094516;28;20063;-62
2022/05/09 00:43:02;;;;;;;3.97;1.75;;;;;;;21.73;36.73;102630.28;5092962;28;20111;-62
2022/05/09 00:45:27;;;;;;;4.55;1.52;;;;;;;21.72;36.76;102631.22;5094467;28;20024;-62
2022/05/09 00:47:53;;;;;;;3.60;1.50;;;;;;;21.72;36.83;102641.81;5093843;28;20047;-62
2022/05/09 00:50:27;;;;;;;4.03;1.67;;;;;;;21.72;37.01;102641.00;5093474;28;20066;-63
2022/05/09 00:53:04;;;;;;;;;;;;;;;21.71;36.73;102633.97;5094295;28;20058;-62
2022/05/09 00:55:51;;;;;;;4.07;1.83;;;;;;;21.71;36.63;102634.84;5094123;28;19919;-62
2022/05/09 00:58:38;;;;;;;4.07;1.65;;;;;;;21.71;36.64;102629.53;5092641;28;20074;-62
2022/05/09 01:01:07;;;;;;;3.03;1.33;;;;;;;21.69;36.81;102636.72;5093652;28;20081;-62
2022/05/09 01:03:40;;;;;;;4.45;1.70;;;;;;;21.69;36.69;102630.59;5093707;28;20081;-62
2022/05/09 01:06:05;;;;;;;3.88;1.63;;;;;;;21.68;36.33;102626.22;5093711;28;20029;-62
2022/05/09 01:08:33;;;;;;;4.03;1.75;;;;;;;21.67;36.69;102624.53;5093946;28;20463;-62
2022/05/09 01:11:03;;;;;;;5.80;2.35;;;;;;;21.69;36.63;102626.13;5092519;28;20480;-63
2022/05/09 01:13:34;;;;;;;3.97;1.73;;;;;;;21.68;36.42;102620.91;5093971;28;20051;-62
2022/05/09 01:16:02;;;;;;;3.88;1.50;;;;;;;21.66;36.59;102618.38;5093113;28;20472;-62
2022/05/09 01:18:27;;;;;;;5.00;1.73;;;;;;;21.65;36.76;102616.69;5092715;28;20020;-62
2022/05/09 01:20:53;;;;;;;5.18;1.90;;;;;;;21.63;36.81;102615.09;5093469;28;20118;-62
2022/05/09 01:23:18;;;;;;;5.53;1.55;;;;;;;21.62;36.59;102613.38;5093471;28;20063;-62
2022/05/09 01:25:46;;;;;;;3.63;1.60;;;;;;;21.59;36.50;102611.78;5092633;28;20032;-62
2022/05/09 01:28:11;;;;;;;4.40;1.60;;;;;;;21.60;36.59;102613.47;5093310;28;20279;-62
2022/05/09 01:30:55;;;;;;;3.72;1.60;;;;;;;21.60;36.36;102612.63;5093255;28;20378;-62
2022/05/09 01:33:28;;;;;;;4.10;1.83;;;;;;;21.60;36.39;102610.81;5092583;28;20487;-62
2022/05/09 01:35:57;;;;;;;3.63;1.50;;;;;;;21.61;36.38;102611.69;5093065;28;20090;-62
2022/05/09 01:38:30;;;;;;;4.13;1.67;;;;;;;21.56;36.36;102604.88;5093385;28;20048;-62
2022/05/09 01:40:55;;;;;;;6.18;1.60;;;;;;;21.58;36.37;102609.25;5092220;28;20103;-62
2022/05/09 01:43:33;;;;;;;3.65;1.45;;;;;;;21.57;36.27;102597.81;5093155;28;20115;-63
2022/05/09 01:45:59;;;;;;;6.28;1.73;;;;;;;21.55;36.42;102597.91;5092284;28;20024;-62
2022/05/09 01:51:08;;;;;;;4.40;1.70;;;;;;;21.54;36.64;102611.28;5093072;28;20051;-63
2022/05/09 01:53:33;;;;;;;4.85;1.75;;;;;;;21.53;36.44;102605.09;5092364;28;20036;-63
2022/05/09 01:55:58;;;;;;;5.28;1.63;;;;;;;21.51;36.39;102612.31;5092641;28;20030;-63
2022/05/09 01:58:24;;;;;;;3.80;1.60;;;;;;;21.50;36.35;102607.13;5092910;28;20032;-62
2022/05/09 02:00:54;;;;;;;4.80;1.50;;;;;;;21.50;36.69;102609.75;5092047;28;20389;-62
2022/05/09 02:03:19;;;;;;;4.75;1.60;;;;;;;21.48;36.45;102601.91;5093010;28;20067;-62
2022/05/09 02:05:45;;;;;;;3.45;1.40;;;;;;;21.48;36.45;102609.00;5092800;28;20024;-62
2022/05/09 02:08:11;;;;;;;4.57;1.40;;;;;;;21.47;36.45;102613.44;5091817;28;20016;-62
2022/05/09 02:10:41;;;;;;;3.42;1.50;;;;;;;21.46;36.41;102606.44;5092627;28;20031;-63
2022/05/09 02:13:09;;;;;;;5.72;1.63;;;;;;;21.46;36.52;102602.94;5092637;28;20035;-62
2022/05/09 02:15:35;;;;;;;3.63;1.45;;;;;;;21.44;36.49;102600.38;5092011;28;20501;-63
2022/05/09 02:18:00;;;;;;;5.27;2.13;;;;;;;21.42;36.36;102604.94;5092404;28;20055;-62
2022/05/09 02:20:25;;;;;;;4.13;1.50;;;;;;;21.43;36.31;102603.13;5092760;28;20748;-62
2022/05/09 02:22:50;;;;;;;4.57;1.50;;;;;;;21.41;36.51;102600.59;5091624;28;20074;-62
2022/05/09 02:25:29;;;;;;;3.00;1.63;;;;;;;21.41;36.23;102591.78;5092582;28;20464;-62
2022/05/09 02:27:56;;;;;;;3.40;1.42;;;;;;;21.39;36.17;102599.84;5092653;28;20103;-62
2022/05/09 02:30:21;;;;;;;4.45;1.58;;;;;;;21.37;36.60;102585.84;5091899;28;20490;-61
2022/05/09 02:32:47;;;;;;;5.25;1.60;;;;;;;21.37;36.46;102599.09;5092667;28;20107;-61
2022/05/09 02:35:13;;;;;;;3.63;1.60;;;;;;;21.36;36.32;102592.97;5091695;28;20233;-62
2022/05/09 02:37:38;;;;;;;4.97;1.70;;;;;;;21.37;36.34;102591.16;5092458;28;20380;-62
2022/05/09 02:40:06;;;;;;;5.68;1.80;;;;;;;21.36;36.50;102595.63;5092490;28;20375;-62
2022/05/09 02:42:32;;;;;;;5.28;1.65;;;;;;;21.35;36.36;102585.97;5091705;28;20472;-63
2022/05/09 02:44:57;;;;;;;4.43;1.53;;;;;;;21.35;36.27;102590.41;5092291;28;20069;-63
2022/05/09 02:47:26;;;;;;;4.27;1.53;;;;;;;21.34;36.21;102588.72;5092654;28;20295;-62
2022/05/09 02:49:51;;;;;;;4.05;1.60;;;;;;;21.34;36.41;102588.72;5091455;28;20269;-62
2022/05/09 02:52:16;;;;;;;6.20;1.50;;;;;;;21.33;36.27;102587.00;5092368;28;20103;-62
2022/05/09 02:54:41;;;;;;;3.50;1.60;;;;;;;21.31;36.38;102592.41;5092619;28;20521;-62
2022/05/09 02:57:07;;;;;;;4.57;1.93;;;;;;;21.28;36.30;102584.66;5091489;28;20508;-62
2022/05/09 02:59:34;;;;;;;4.03;1.50;;;;;;;21.29;36.63;102588.19;5092501;28;20269;-63
2022/05/09 03:02:01;;;;;;;6.57;1.77;;;;;;;21.26;36.28;102586.56;5092127;28;20032;-63
2022/05/09 03:04:39;;;;;;;4.95;1.98;;;;;;;21.29;36.31;102585.53;5091542;28;20485;-62
2022/05/09 03:07:12;;;;;;;4.60;1.73;;;;;;;21.27;36.51;102582.09;5092251;28;20035;-62
2022/05/09 03:09:38;;;;;;;3.95;1.63;;;;;;;21.26;36.33;102580.44;5092158;28;20490;-62
2022/05/09 03:12:07;;;;;;;4.35;1.77;;;;;;;21.24;36.29;102580.53;5091001;28;20036;-62
2022/05/09 03:14:33;;;;;;;4.70;1.67;;;;;;;21.24;36.26;102583.19;5092321;28;20031;-62
2022/05/09 03:16:59;;;;;;;3.47;1.45;;;;;;;21.23;36.27;102580.63;5091950;28;20034;-61
2022/05/09 03:19:25;;;;;;;4.72;1.88;;;;;;;21.22;36.34;102581.56;5091534;28;20021;-62
2022/05/09 03:21:53;;;;;;;5.80;1.60;;;;;;;21.20;36.47;102593.16;5092572;28;20103;-61
2022/05/09 03:24:19;;;;;;;4.93;1.67;;;;;;;21.19;36.31;102575.53;5095230;28;20074;-62
2022/05/09 03:26:45;;;;;;;4.72;1.63;;;;;;;21.20;36.28;102574.59;5095892;28;20046;-62
2022/05/09 03:29:10;;;;;;;4.07;1.55;;;;;;;21.18;36.24;102576.47;5095541;28;20458;-62
2022/05/09 03:31:36;;;;;;;3.75;1.60;;;;;;;21.20;36.37;102573.72;5094882;28;20628;-62
2022/05/09 03:34:01;;;;;;;4.38;1.58;;;;;;;21.19;36.21;102572.03;5095602;28;20028;-62
2022/05/09 03:36:27;;;;;;;4.50;1.80;;;;;;;21.17;36.20;102574.78;5095756;28;20467;-62
2022/05/09 03:38:52;;;;;;;5.20;1.77;;;;;;;21.17;36.32;102571.28;5094473;28;20052;-61
2022/05/09 03:41:17;;;;;;;5.15;1.60;;;;;;;21.17;36.47;102568.63;5095709;28;20024;-61
2022/05/09 03:43:43;;;;;;;4.35;1.55;;;;;;;21.17;36.29;102565.97;5095507;28;20085;-61
2022/05/09 03:46:08;;;;;;;3.70;1.45;;;;;;;21.15;36.26;102567.88;5094572;28;20024;-61
2022/05/09 03:48:34;;;;;;;4.53;1.50;;;;;;;21.15;36.09;102559.94;5095398;28;20019;-62
2022/05/09 03:51:01;;;;;;;4.40;1.83;;;;;;;21.15;36.15;102568.72;5095093;28;20047;-62
2022/05/09 03:53:34;;;;;;;4.60;1.80;;;;;;;21.14;36.20;102558.22;5094746;28;20024;-62
2022/05/09 03:56:00;;;;;;;4.22;1.70;;;;;;;21.14;36.14;102560.88;5095215;28;20024;-62
2022/05/09 03:58:25;;;;;;;6.60;1.83;;;;;;;21.13;36.24;102562.69;5095212;28;20020;-62
2022/05/09 04:00:51;;;;;;;3.72;1.40;;;;;;;21.13;36.21;102565.34;5094059;28;20020;-62
2022/05/09 04:03:20;;;;;;;5.13;1.70;;;;;;;21.13;36.25;102561.84;5095229;28;20028;-62
2022/05/09 04:05:45;;;;;;;4.80;1.60;;;;;;;21.12;36.12;102563.63;5095034;28;20055;-63
2022/05/09 04:08:16;;;;;;;4.55;1.60;;;;;;;21.12;36.30;102568.09;5094227;28;20074;-63
2022/05/09 04:10:42;;;;;;;5.72;1.77;;;;;;;21.12;36.10;102568.94;5094899;28;20479;-63
2022/05/09 04:13:08;;;;;;;4.75;1.42;;;;;;;21.12;36.16;102568.94;5094724;28;20148;-62
2022/05/09 04:18:21;;;;;;;4.78;1.60;;;;;;;21.09;36.16;102574.44;5094981;28;20048;-62
2022/05/09 04:20:48;;;;;;;4.72;1.50;;;;;;;21.08;36.16;102575.41;5094039;28;20125;-62
2022/05/09 04:23:15;;;;;;;5.07;1.75;;;;;;;21.08;36.14;102569.25;5094527;28;20060;-63
2022/05/09 04:25:40;;;;;;;5.53;1.75;;;;;;;21.08;35.94;102559.50;5094547;28;20493;-62
2022/05/09 04:28:10;;;;;;;5.10;1.63;;;;;;;21.07;36.24;102554.31;5093749;28;20036;-63
2022/05/09 04:30:38;;;;;;;4.50;1.65;;;;;;;21.06;36.24;102557.91;5094682;28;20070;-63
2022/05/09 04:33:04;;;;;;;3.85;1.60;;;;;;;21.06;36.17;102550.81;5094439;28;20046;-63
2022/05/09 04:35:31;;;;;;;5.50;1.60;;;;;;;21.06;36.26;102552.59;5093909;28;20020;-63
2022/05/09 04:37:56;;;;;;;4.13;1.45;;;;;;;21.07;36.21;102559.59;5094088;28;20476;-63
2022/05/09 04:40:25;;;;;;;4.82;1.85;;;;;;;21.05;36.09;102554.41;5094448;28;20024;-63
2022/05/09 04:42:51;;;;;;;4.63;1.70;;;;;;;21.05;36.11;102551.75;5093415;28;20024;-64
2022/05/09 04:45:17;;;;;;;4.45;1.65;;;;;;;21.06;36.19;102555.25;5094450;28;20032;-63
2022/05/09 04:47:45;;;;;;;4.80;1.73;;;;;;;21.06;36.08;102552.59;5094479;28;20352;-63
2022/05/09 04:50:14;;;;;;;5.45;2.38;;;;;;;21.05;36.25;102553.56;5093032;28;20031;-63
2022/05/09 04:52:39;;;;;;;4.00;1.80;;;;;;;21.05;36.11;102554.41;5094232;28;20016;-63
2022/05/09 04:55:05;;;;;;;5.53;1.75;;;;;;;21.05;36.13;102549.09;5093762;28;20031;-63
2022/05/09 04:57:31;;;;;;;4.32;1.75;;;;;;;21.05;36.18;102548.25;5093247;28;20031;-62
2022/05/09 04:59:57;;;;;;;4.60;1.75;;;;;;;21.06;36.04;102553.47;5093738;28;20056;-63
2022/05/09 05:02:25;;;;;;;4.20;1.70;;;;;;;21.07;35.94;102551.66;5094066;28;20103;-62
2022/05/09 05:04:51;;;;;;;5.00;1.58;;;;;;;21.07;36.04;102546.34;5092626;28;20024;-61
2022/05/09 05:07:16;;;;;;;3.93;1.63;;;;;;;21.07;36.07;102539.25;5093979;28;20027;-61
2022/05/09 05:09:44;;;;;;;4.85;1.50;;;;;;;21.07;36.08;102538.41;5093569;28;20280;-62
2022/05/09 05:12:09;;;;;;;5.80;2.10;;;;;;;21.08;36.01;102537.44;5092773;28;20529;-62
2022/05/09 05:14:35;;;;;;;5.10;1.60;;;;;;;21.07;36.06;102536.59;5093444;28;20024;-62
2022/05/09 05:17:03;;;;;;;4.80;1.83;;;;;;;21.10;36.03;102546.16;5092593;28;20044;-61
2022/05/09 05:19:31;;;;;;;4.70;1.52;;;;;;;21.09;36.19;102545.28;5093635;28;20628;-62
2022/05/09 05:21:59;;;;;;;5.63;1.60;;;;;;;21.08;36.14;102550.69;5093229;28;20580;-62
2022/05/09 05:24:25;;;;;;;4.47;1.65;;;;;;;21.08;35.99;102551.56;5092630;28;20467;-62
2022/05/09 05:27:27;;;;;;;5.10;1.90;;;;;;;21.08;36.10;102546.25;5093389;28;20020;-62
2022/05/09 05:29:57;;;;;;;4.93;1.80;;;;;;;21.09;36.08;102547.94;5052973;28;20036;-62
2022/05/09 05:32:27;;;;;;;3.83;1.70;;;;;;;21.09;36.04;102552.38;5092554;28;20028;-62
2022/05/09 05:34:53;;;;;;;4.30;1.85;;;;;;;21.11;36.02;102550.47;5093168;28;20032;-62
2022/05/09 05:37:18;;;;;;;4.70;1.48;;;;;;;21.09;36.08;102547.94;5093456;28;20076;-62
2022/05/09 05:39:45;;;;;;;4.40;1.50;;;;;;;21.10;36.10;102557.59;5092434;28;20107;-62
2022/05/09 05:42:11;;;;;;;3.80;1.65;;;;;;;21.10;36.05;102549.63;5092665;28;20521;-62
2022/05/09 05:44:39;;;;;;;5.32;1.60;;;;;;;21.11;36.02;102543.41;5092703;28;20593;-63
2022/05/09 05:47:10;;;;;;;6.38;2.28;;;;;;;21.13;36.11;102549.44;5092234;28;20387;-63
2022/05/09 05:49:39;;;;;;;4.22;1.70;;;;;;;21.13;35.89;102549.44;5093302;28;20111;-62
2022/05/09 05:52:06;;;;;;;5.28;1.85;;;;;;;21.12;36.07;102547.72;5092079;28;20034;-62
2022/05/09 05:54:34;;;;;;;5.40;1.90;;;;;;;21.13;36.27;102545.94;5093099;28;20388;-62
2022/05/09 05:57:07;;;;;;;5.40;1.83;;;;;;;21.12;35.89;102546.88;5092565;28;20024;-63
2022/05/09 05:59:33;;;;;;;4.45;1.60;;;;;;;21.09;36.19;102547.09;5091982;28;20016;-62
2022/05/09 06:01:59;;;;;;;5.00;1.80;;;;;;;21.07;36.49;102547.19;5092622;28;20153;-62
2022/05/09 06:04:25;;;;;;;5.20;2.00;;;;;;;21.04;36.67;102542.09;5092936;28;20387;-62
2022/05/09 06:06:55;;;;;;;7.05;2.15;;;;;;;21.05;36.74;102550.91;5091667;28;20031;-62
2022/05/09 06:09:23;;;;;;;5.38;1.70;;;;;;;21.05;36.93;102549.09;5092914;28;20035;-61
2022/05/09 06:11:48;;;;;;;7.45;2.13;;;;;;;21.06;36.90;102544.63;5092398;28;20052;-61
2022/05/09 06:14:14;;;;;;;5.05;1.88;;;;;;;21.08;36.86;102540.06;5091786;28;20455;-61
2022/05/09 06:16:40;;;;;;;4.72;1.80;;;;;;;21.10;37.02;102547.00;5092492;28;20052;-61
2022/05/09 06:19:05;;;;;;;4.95;1.70;;;;;;;21.11;37.08;102551.34;5092376;28;20464;-63
2022/05/09 06:21:37;;;;;;;4.75;1.73;;;;;;;21.13;37.20;102545.94;5091864;28;20077;-62
2022/05/09 06:24:04;;;;;;;4.93;1.88;;;;;;;21.16;37.02;102548.38;5092477;28;20024;-62
2022/05/09 06:26:30;;;;;;;6.15;2.03;;;;;;;21.18;37.03;102549.97;5092091;28;20040;-64
2022/05/09 06:28:55;;;;;;;5.22;1.85;;;;;;;21.16;37.15;102543.94;5091352;28;20020;-64
2022/05/09 06:31:24;;;;;;;5.47;1.75;;;;;;;21.18;37.22;102546.47;5092379;28;20047;-63
2022/05/09 06:33:49;;;;;;;4.50;1.85;;;;;;;21.20;37.31;102550.72;5092482;28;20035;-63
2022/05/09 06:36:14;;;;;;;5.27;2.00;;;;;;;21.21;37.26;102543.63;5091539;28;20028;-64
2022/05/09 06:38:40;;;;;;;5.65;1.77;;;;;;;21.23;37.56;102538.22;5092467;28;20287;-64
2022/05/09 06:41:07;;;;;;;4.35;1.75;;;;;;;21.25;37.56;102550.38;5092197;28;20055;-63
2022/05/09 06:43:33;;;;;;;4.97;1.70;;;;;;;21.28;37.72;102541.38;5091809;28;20024;-63
2022/05/09 06:45:58;;;;;;;6.55;1.90;;;;;;;21.28;37.71;102539.56;5092417;28;20023;-63
2022/05/09 06:48:23;;;;;;;5.83;1.80;;;;;;;21.30;37.94;102540.34;5091840;28;20036;-63
2022/05/09 06:50:49;;;;;;;4.70;2.00;;;;;;;21.34;37.82;102541.81;5092087;28;20269;-63
2022/05/09 06:53:15;;;;;;;4.40;1.90;;;;;;;21.37;37.96;102538.13;5092390;28;20360;-64
2022/05/09 06:55:41;;;;;;;7.32;2.00;;;;;;;21.37;37.84;102531.00;5091557;28;20050;-62
2022/05/09 06:58:11;;;;;;;6.18;2.13;;;;;;;21.36;38.33;102537.28;5094793;28;20085;-61
2022/05/09 07:00:39;;;;;;;9.45;2.60;;;;;;;21.35;39.07;102538.22;5096299;28;20481;-62
2022/05/09 07:03:05;;;;;;;7.57;2.40;;;;;;;21.33;39.73;102537.47;5095198;28;20063;-61
2022/05/09 07:05:31;;;;;;;8.40;2.45;;;;;;;21.35;40.00;102540.03;5096305;28;20056;-63
2022/05/09 07:07:57;;;;;;;8.25;2.40;;;;;;;21.35;40.16;102538.22;5095891;28;20020;-62
2022/05/09 07:10:22;;;;;;;8.98;2.70;;;;;;;21.35;40.35;102540.88;5095478;28;20093;-62
2022/05/09 07:12:53;;;;;;;6.03;2.13;;;;;;;21.39;40.39;102533.53;5096046;28;20417;-63
2022/05/09 07:15:24;;;;;;;6.03;2.15;;;;;;;21.41;40.63;102534.28;5095136;28;20478;-62
2022/05/09 07:17:50;;;;;;;6.45;2.25;;;;;;;21.41;40.50;102523.66;5094974;28;20024;-62
2022/05/09 07:20:17;;;;;;;5.85;2.40;;;;;;;21.42;40.76;102532.50;5095923;28;20099;-62
2022/05/09 07:22:44;;;;;;;6.93;2.35;;;;;;;21.44;40.69;102533.22;5095759;28;20021;-61
2022/05/09 07:25:13;;;;;;;7.05;2.50;;;;;;;21.45;40.87;102529.63;5094745;28;20024;-61
2022/05/09 07:27:39;;;;;;;8.10;2.90;;;;;;;21.48;40.71;102532.94;5095896;28;20028;-60
2022/05/09 07:30:05;;;;;;;7.72;2.75;;;;;;;21.49;40.80;102531.13;5095619;28;20028;-61
2022/05/09 07:32:30;;;;;;;7.50;2.70;;;;;;;21.53;40.62;102537.94;5095125;28;20020;-60
2022/05/09 07:34:55;;;;;;;4.70;2.10;;;;;;;21.54;40.90;102531.69;5095322;28;20020;-60
2022/05/09 07:37:21;;;;;;;6.27;2.10;;;;;;;21.58;40.25;102533.16;5095634;28;20291;-62
2022/05/09 07:39:47;;;;;;;6.85;2.55;;;;;;;21.59;40.42;102534.00;5094767;28;20032;-62
2022/05/09 07:42:12;;;;;;;7.22;2.25;;;;;;;21.61;40.40;102537.41;5095027;28;20494;-62
2022/05/09 07:44:38;;;;;;;7.72;2.65;;;;;;;21.61;40.40;102538.25;5094708;28;20028;-62
2022/05/09 07:47:03;;;;;;;6.72;2.35;;;;;;;21.61;39.73;102526.78;5095159;28;20032;-62
2022/05/09 07:49:29;;;;;;;5.40;2.15;;;;;;;21.60;39.21;102541.00;5095311;28;20051;-61
2022/05/09 07:51:55;;;;;;;10.23;2.60;;;;;;;21.58;38.95;102532.31;5094409;28;20063;-62
2022/05/09 07:54:20;;;;;;;6.72;2.47;;;;;;;21.59;38.73;102537.50;5095787;28;20409;-63
2022/05/09 07:56:46;;;;;;;8.97;2.80;;;;;;;21.59;38.50;102532.22;5095409;28;20441;-62
2022/05/09 07:59:11;;;;;;;7.57;2.80;;;;;;;21.58;38.64;102527.84;5094106;28;20073;-62
2022/05/09 08:01:37;;;;;;;7.03;2.70;;;;;;;21.56;38.66;102532.41;5095227;28;20028;-62
2022/05/09 08:04:02;;;;;;;7.43;2.70;;;;;;;21.55;38.75;102534.25;5094749;28;20648;-62
2022/05/09 08:06:28;;;;;;;6.88;2.72;;;;;;;21.53;38.72;102530.81;5094312;28;20272;-62
2022/05/09 08:08:53;;;;;;;7.03;2.83;;;;;;;21.53;38.49;102530.81;5094212;28;20111;-64
2022/05/09 08:11:19;;;;;;;9.43;2.97;;;;;;;21.50;38.86;102536.34;5095188;28;20034;-62
2022/05/09 08:13:45;;;;;;;7.32;2.63;;;;;;;21.46;39.51;102528.66;5096170;28;20028;-61
2022/05/09 08:16:19;;;;;;;5.75;2.17;;;;;;;21.46;39.23;102532.19;5095149;28;20114;-63
2022/05/09 08:18:44;;;;;;;7.85;2.53;;;;;;;21.47;39.28;102528.56;5095207;28;20097;-60
2022/05/09 08:21:13;;;;;;;5.90;2.30;;;;;;;21.46;39.35;102526.88;5094038;28;20475;-61
2022/05/09 08:23:39;;;;;;;5.75;2.08;;;;;;;21.46;39.20;102526.88;5094867;28;20119;-65
2022/05/09 08:26:04;;;;;;;7.07;2.10;;;;;;;21.50;39.41;102532.84;5094833;28;20063;-63
2022/05/09 08:28:33;;;;;;;9.20;3.75;;;;;;;21.54;39.06;102527.22;5094301;28;20020;-65
2022/05/09 08:30:58;;;;;;;8.95;2.67;;;;;;;21.61;39.41;102532.94;5095066;28;20028;-64
2022/05/09 08:33:26;;;;;;;7.10;2.40;;;;;;;21.65;38.99;102525.59;5095509;28;20100;-64
2022/05/09 08:35:53;;;;;;;7.18;2.47;;;;;;;21.71;38.73;102527.84;5093758;28;20043;-63
2022/05/09 08:38:19;;;;;;;5.90;2.20;;;;;;;21.76;38.71;102530.16;5094847;28;20402;-62
2022/05/09 08:41:08;;;;;;;5.80;2.10;;;;;;;21.79;38.76;102529.97;5094546;28;20476;-60
2022/05/09 08:43:48;;;;;;;5.78;2.13;;;;;;;21.84;38.66;102528.69;5094832;28;20032;-61
2022/05/09 08:46:43;;;;;;;7.40;2.42;;;;;;;21.85;38.77;102530.38;5094464;28;20028;-65
2022/05/09 08:49:20;;;;;;;7.72;2.28;;;;;;;21.84;38.52;102526.03;5093564;28;20020;-62
2022/05/09 08:51:52;;;;;;;7.03;2.08;;;;;;;21.84;38.47;102528.69;5094470;28;20062;-62
2022/05/09 08:54:20;;;;;;;4.97;2.17;;;;;;;21.85;38.51;102521.56;5093856;28;20040;-62
2022/05/09 08:56:59;;;;;;;6.00;2.40;;;;;;;21.85;38.62;102519.75;5093349;28;20023;-62
2022/05/09 08:59:36;;;;;;;4.72;1.73;;;;;;;21.86;38.39;102526.75;5094346;28;20016;-62
2022/05/09 09:02:21;;;;;;;7.22;1.98;;;;;;;21.87;38.46;102517.84;5093089;28;20024;-62
2022/05/09 09:04:54;;;;;;;8.68;2.10;;;;;;;21.87;38.49;102514.31;5093999;28;20032;-62
2022/05/09 09:08:01;;;;;;;5.40;2.30;;;;;;;21.91;38.66;102516.66;5094160;28;20035;-61
2022/05/09 09:10:52;;;;;;;5.15;1.88;;;;;;;21.93;38.59;102506.78;5084710;28;20043;-62
2022/05/09 09:13:54;;;;;;;4.80;1.67;;;;;;;21.99;38.44;102508.16;5093589;28;20035;-63
2022/05/09 09:16:22;;;;;;;4.57;1.75;;;;;;;22.05;38.43;102507.72;5092661;28;20488;-64
2022/05/09 09:19:02;;;;;;;4.00;1.60;;;;;;;22.04;38.76;102503.34;5093851;28;20024;-62
2022/05/09 09:22:04;;;;;;;6.05;1.90;;;;;;;22.09;38.72;102501.22;5093794;28;20027;-64
2022/05/09 09:24:50;;;;;;;5.25;1.70;;;;;;;22.13;38.51;102503.63;5092936;28;20077;-65
2022/05/09 09:27:35;;;;;;;5.75;1.70;;;;;;;22.16;38.78;102504.28;5093922;28;20034;-62
2022/05/09 09:30:10;;;;;;;4.15;1.55;;;;;;;22.19;38.53;102497.88;5092661;28;20036;-64
2022/05/09 09:32:39;;;;;;;5.80;1.60;;;;;;;22.23;38.55;102502.03;5093543;28;20035;-64
2022/05/09 09:35:11;;;;;;;6.40;2.05;;;;;;;22.25;38.33;102498.28;5093227;28;20095;-63
2022/05/09 09:37:45;;;;;;;4.68;1.60;;;;;;;22.27;38.53;102498.16;5092709;28;20024;-62
2022/05/09 09:40:11;;;;;;;5.20;1.70;;;;;;;22.28;38.58;102498.06;5093125;28;20047;-63
2022/05/09 09:42:36;;;;;;;4.40;1.80;;;;;;;22.28;38.59;102495.41;5093221;28;20475;-64
2022/05/09 09:45:15;;;;;;;5.10;1.83;;;;;;;22.29;38.57;102490.97;5092380;28;20032;-62
2022/05/09 09:47:41;;;;;;;4.80;1.80;;;;;;;22.32;38.63;102489.91;5093418;28;20394;-63
2022/05/09 09:50:12;;;;;;;5.43;1.90;;;;;;;22.34;38.61;102491.50;5092758;28;20024;-63
2022/05/09 09:52:59;;;;;;;4.43;1.70;;;;;;;22.36;38.17;102492.22;5092231;28;20032;-65
2022/05/09 09:55:31;;;;;;;4.60;1.50;;;;;;;22.33;38.28;102483.63;5093337;28;20390;-61
2022/05/09 09:57:59;;;;;;;4.53;1.50;;;;;;;22.32;38.25;102480.16;5094230;28;20020;-63
2022/05/09 10:00:35;;;;;;;6.35;1.42;;;;;;;22.34;37.93;102480.88;5093411;28;20028;-64
2022/05/09 10:03:19;;;;;;;4.95;1.58;;;;;;;22.36;38.06;102470.97;5093668;28;20035;-64
2022/05/09 10:05:45;;;;;;;4.80;1.55;;;;;;;22.39;38.05;102470.75;5096273;28;20020;-66
2022/05/09 10:08:19;;;;;;;4.32;1.50;;;;;;;22.42;38.21;102464.38;5093393;28;20032;-62
2022/05/09 10:11:12;;;;;;;4.47;1.60;;;;;;;22.44;37.83;102470.41;5093264;28;20107;-62
2022/05/09 10:13:42;;;;;;;4.88;1.67;;;;;;;22.44;37.66;102460.63;5092260;28;20042;-61
2022/05/09 10:16:12;;;;;;;3.63;1.23;;;;;;;22.44;37.61;102463.28;5092365;28;20044;-61
2022/05/09 10:18:38;;;;;;;6.00;1.67;;;;;;;22.45;37.90;102451.69;5092826;28;20467;-61
2022/05/09 10:24:47;;;;;;;6.38;1.67;;;;;;;22.50;37.81;102451.38;5092797;28;20055;-62
2022/05/09 10:27:32;;;;;;;4.45;1.60;;;;;;;22.53;37.67;102445.81;5092518;28;20361;-63
2022/05/09 10:30:16;;;;;;;4.60;1.63;;;;;;;22.53;38.08;102445.81;5092498;28;20028;-63
2022/05/09 10:33:14;;;;;;;4.85;1.58;;;;;;;22.53;38.05;102443.16;5096629;28;20028;-62
2022/05/09 10:35:48;;;;;;;3.47;1.60;;;;;;;22.56;37.87;102437.63;5058651;28;20477;-60
2022/05/09 10:38:37;;;;;;;6.03;1.40;;;;;;;22.56;38.26;102437.63;5096791;28;20113;-60
2022/05/09 10:41:15;;;;;;;4.72;1.48;;;;;;;22.55;38.44;102432.41;5095466;28;20023;-61
2022/05/09 10:43:52;;;;;;;4.40;1.52;;;;;;;22.57;38.49;102434.00;5096982;28;20377;-61
2022/05/09 10:46:20;;;;;;;5.78;1.60;;;;;;;22.59;38.35;102436.56;5096833;28;20368;-62
2022/05/09 10:48:56;;;;;;;5.75;1.60;;;;;;;22.58;38.39;102425.06;5095959;28;20016;-62
2022/05/09 10:51:32;;;;;;;3.55;1.48;;;;;;;22.58;38.28;102430.38;5096639;28;20027;-61
2022/05/09 10:54:10;;;;;;;7.45;1.80;;;;;;;22.59;38.54;102428.59;5096327;28;20028;-60
2022/05/09 10:56:49;;;;;;;5.82;1.80;;;;;;;22.58;38.67;102429.53;5095698;28;20045;-60
2022/05/09 10:59:30;;;;;;;4.10;1.50;;;;;;;22.59;38.35;102421.44;5096477;28;20024;-61
2022/05/09 11:02:05;;;;;;;5.03;1.35;;;;;;;22.56;38.44;102419.03;5095011;28;20026;-59
2022/05/09 11:04:34;;;;;;;4.13;1.42;;;;;;;22.56;38.18;102418.19;5096519;28;20024;-58
2022/05/09 11:07:28;;;;;;;4.78;1.50;;;;;;;22.58;38.10;102411.78;5096022;28;20031;-59
2022/05/09 11:10:05;;;;;;;3.85;1.30;;;;;;;22.56;38.23;102411.06;5094990;28;20378;-59
2022/05/09 11:12:30;;;;;;;6.15;1.60;;;;;;;22.57;38.26;102415.41;5096289;28;20036;-58
2022/05/09 11:15:10;;;;;;;5.13;1.60;;;;;;;22.56;38.24;102402.25;5095636;28;20044;-59
2022/05/09 11:18:10;;;;;;;5.88;1.90;;;;;;;22.57;38.31;102412.75;5095277;28;20472;-60
2022/05/09 11:20:54;;;;;;;4.50;1.65;;;;;;;22.58;38.24;102402.97;5095895;28;20028;-58
2022/05/09 11:23:49;;;;;;;3.80;1.48;;;;;;;22.58;38.28;102401.16;5095000;28;20484;-58
2022/05/09 11:26:51;;;;;;;3.85;1.65;;;;;;;22.58;38.35;102397.66;5095965;28;20063;-59
2022/05/09 11:29:44;;;;;;;3.88;1.50;;;;;;;22.59;38.31;102396.69;5097835;28;20416;-60
2022/05/09 11:32:42;;;;;;;5.30;1.63;;;;;;;22.58;38.00;102384.38;5095757;28;20089;-60
2022/05/09 11:35:33;;;;;;;4.63;1.42;;;;;;;22.55;37.93;102382.78;5095515;28;20059;-61
2022/05/09 11:38:07;;;;;;;6.72;1.50;;;;;;;22.55;38.06;102376.63;5094771;28;20107;-61
2022/05/09 11:40:48;;;;;;;5.07;1.50;;;;;;;22.57;38.23;102370.25;5095727;28;20032;-61
2022/05/09 11:43:32;;;;;;;4.72;1.50;;;;;;;22.58;38.05;102363.13;5094689;28;20169;-60
2022/05/09 11:46:34;;;;;;;5.70;1.20;;;;;;;22.60;38.16;102362.00;5094423;28;20463;-61
2022/05/09 11:49:14;;;;;;;4.47;1.50;;;;;;;22.61;38.20;102358.41;5095230;28;20043;-61